Time;durP1;ratioP1;P1;durP2;ratioP2;P2;SDS_P1;SDS_P2;PMS_P1;PMS_P2;Temp;Humidity;BMP_temperature;BMP_pressure;BME280_temperature;BME280_humidity;BME280_pressure;Samples;Min_cycle;Max_cycle;Signal;HPM_P1;HPM_P2
2021/09/25 00:01:44;;;;;;;14.82;8.00;;;358.80;2329.60;;;;;;4876500;29;20040;-51
2021/09/25 00:04:10;;;;;;;10.77;7.22;;;358.70;2329.60;;;;;;4871449;29;20029;-58
2021/09/25 00:06:35;;;;;;;13.15;7.07;;;358.70;2329.60;;;;;;4867533;29;20034;-57
2021/09/25 00:09:01;;;;;;;9.60;7.20;;;358.70;2329.60;;;;;;4867950;29;20025;-58
2021/09/25 00:11:28;;;;;;;8.90;6.85;;;358.80;2329.60;;;;;;4866527;29;20030;-58
2021/09/25 00:13:55;;;;;;;9.88;6.28;;;358.70;2329.60;;;;;;4866084;29;20029;-57
2021/09/25 00:16:21;;;;;;;18.60;11.52;;;358.70;2329.60;;;;;;4866902;29;20059;-52
2021/09/25 00:18:47;;;;;;;10.23;7.25;;;358.70;2329.60;;;;;;4866175;29;20018;-51
2021/09/25 00:21:12;;;;;;;12.13;8.00;;;358.70;2329.60;;;;;;4865988;29;20047;-51
2021/09/25 00:23:38;;;;;;;15.32;10.13;;;358.70;2329.60;;;;;;4867377;29;20043;-50
2021/09/25 00:26:04;;;;;;;11.95;8.65;;;358.70;2329.60;;;;;;4865806;29;20093;-51
2021/09/25 00:28:29;;;;;;;12.88;9.30;;;358.70;2329.60;;;;;;4866230;29;20025;-51
2021/09/25 00:30:55;;;;;;;11.50;8.23;;;358.70;2329.60;;;;;;4866909;29;20114;-55
2021/09/25 00:33:21;;;;;;;12.55;7.40;;;358.70;2329.60;;;;;;4865479;29;20034;-50
2021/09/25 00:35:47;;;;;;;12.55;9.77;;;358.70;2329.60;;;;;;4866577;29;20033;-53
2021/09/25 00:38:12;;;;;;;15.35;9.95;;;358.70;2329.60;;;;;;4866817;29;20033;-56
2021/09/25 00:40:38;;;;;;;18.40;12.95;;;358.60;2329.60;;;;;;4865233;29;20477;-52
2021/09/25 00:43:04;;;;;;;22.00;15.45;;;358.60;2329.60;;;;;;4867138;29;20021;-57
2021/09/25 00:45:29;;;;;;;24.35;17.00;;;358.60;2329.60;;;;;;4866151;29;20022;-57
2021/09/25 00:47:55;;;;;;;19.83;14.57;;;358.60;2329.60;;;;;;4865429;29;20161;-52
2021/09/25 00:50:22;;;;;;;25.98;19.20;;;358.60;2329.60;;;;;;4867370;29;20054;-57
2021/09/25 00:52:48;;;;;;;13.82;9.15;;;358.60;2329.60;;;;;;4865689;29;20037;-62
2021/09/25 00:55:14;;;;;;;11.57;8.35;;;358.60;2329.60;;;;;;4865990;29;20136;-58
2021/09/25 00:57:40;;;;;;;11.50;8.52;;;358.60;2329.60;;;;;;4867050;29;20104;-52
2021/09/25 01:00:08;;;;;;;12.40;9.60;;;358.60;2329.60;;;;;;4865181;29;20029;-52
2021/09/25 01:02:36;;;;;;;15.10;9.85;;;358.50;2329.60;;;;;;4863235;29;20060;-50
2021/09/25 01:05:03;;;;;;;16.65;9.75;;;358.60;2329.60;;;;;;4857288;29;20033;-52
2021/09/25 01:07:29;;;;;;;11.18;9.45;;;358.50;2329.60;;;;;;4857037;29;20520;-52
2021/09/25 01:09:55;;;;;;;9.73;7.88;;;358.50;2329.60;;;;;;4857581;29;20033;-51
2021/09/25 01:12:20;;;;;;;17.70;13.50;;;358.50;2329.60;;;;;;4857173;29;20033;-53
2021/09/25 01:14:46;;;;;;;12.90;8.82;;;358.50;2329.60;;;;;;4856976;29;20060;-52
2021/09/25 01:17:13;;;;;;;8.13;7.13;;;358.50;2329.60;;;;;;4857122;29;20489;-52
2021/09/25 01:19:43;;;;;;;10.95;6.93;;;358.50;2329.60;;;;;;4856919;29;20033;-52
2021/09/25 01:22:10;;;;;;;10.10;7.22;;;358.50;2329.60;;;;;;4856750;29;20034;-50
2021/09/25 01:24:36;;;;;;;10.65;7.38;;;358.40;2329.60;;;;;;4857096;29;20379;-52
2021/09/25 01:27:03;;;;;;;10.35;7.22;;;358.40;2329.60;;;;;;4859128;29;20172;-52
2021/09/25 01:29:30;;;;;;;9.30;6.22;;;333.70;2329.60;;;;;;4860190;29;20125;-52
2021/09/25 01:31:56;;;;;;;10.23;7.00;;;333.70;2329.60;;;;;;4860440;29;20049;-52
2021/09/25 01:34:22;;;;;;;10.52;7.13;;;333.70;2329.60;;;;;;4860447;29;20243;-52
2021/09/25 01:36:49;;;;;;;10.45;6.82;;;333.70;2329.60;;;;;;4860113;29;20090;-51
2021/09/25 01:39:15;;;;;;;8.05;6.25;;;333.70;2329.60;;;;;;4860796;29;20632;-53
2021/09/25 01:41:41;;;;;;;8.98;7.00;;;333.60;2329.60;;;;;;4860300;29;20487;-51
2021/09/25 01:44:07;;;;;;;8.80;6.15;;;333.60;2329.60;;;;;;4860080;29;20504;-51
2021/09/25 01:46:33;;;;;;;10.40;6.72;;;333.60;2329.60;;;;;;4860243;29;20072;-51
2021/09/25 01:48:59;;;;;;;8.43;7.20;;;333.60;2329.60;;;;;;4860034;29;20061;-51
2021/09/25 01:51:24;;;;;;;10.95;7.15;;;333.70;2329.60;;;;;;4860397;29;20025;-51
2021/09/25 01:53:50;;;;;;;9.30;6.07;;;333.70;2329.60;;;;;;4859910;29;20026;-51
2021/09/25 01:56:16;;;;;;;8.35;6.63;;;333.70;2329.60;;;;;;4860179;29;20089;-52
2021/09/25 01:58:43;;;;;;;8.35;6.15;;;333.70;2329.60;;;;;;4860118;29;20029;-67
2021/09/25 02:01:10;;;;;;;10.70;7.25;;;333.60;2329.60;;;;;;4842666;29;20117;-66
2021/09/25 02:03:36;;;;;;;9.98;7.63;;;333.60;2329.60;;;;;;4859771;29;20473;-65
2021/09/25 02:06:06;;;;;;;7.68;6.65;;;333.50;2329.60;;;;;;4859931;29;20167;-67
2021/09/25 02:08:32;;;;;;;11.27;7.47;;;333.60;2329.60;;;;;;4843608;29;20433;-64
2021/09/25 02:10:58;;;;;;;8.38;6.85;;;333.40;2329.60;;;;;;4859593;29;20021;-63
2021/09/25 02:13:25;;;;;;;9.63;7.25;;;333.40;2329.60;;;;;;4859843;29;20040;-51
2021/09/25 02:15:51;;;;;;;8.18;6.43;;;333.40;2329.60;;;;;;4859669;29;20483;-52
2021/09/25 02:18:17;;;;;;;10.82;6.65;;;333.40;2329.60;;;;;;4859452;29;20108;-51
2021/09/25 02:20:43;;;;;;;7.28;6.00;;;333.40;2329.60;;;;;;4859549;29;20105;-51
2021/09/25 02:23:09;;;;;;;12.07;6.82;;;333.40;2329.60;;;;;;4859306;29;20038;-52
2021/09/25 02:25:34;;;;;;;11.90;6.68;;;333.50;2329.60;;;;;;4859544;29;20033;-51
2021/09/25 02:28:00;;;;;;;9.90;6.03;;;333.40;2329.60;;;;;;4859309;29;20329;-54
2021/09/25 02:30:27;;;;;;;9.55;6.30;;;333.40;2329.60;;;;;;4859096;29;20046;-51
2021/09/25 02:32:53;;;;;;;9.63;7.22;;;333.40;2329.60;;;;;;4859365;29;20042;-59
2021/09/25 02:35:20;;;;;;;13.05;6.65;;;333.30;2329.60;;;;;;4859195;29;20029;-51
2021/09/25 02:37:47;;;;;;;9.15;7.07;;;333.40;2329.60;;;;;;4858327;29;20034;-51
2021/09/25 02:40:14;;;;;;;10.55;6.97;;;333.30;2329.60;;;;;;4859513;29;20034;-51
2021/09/25 02:42:41;;;;;;;9.43;6.78;;;333.30;2329.60;;;;;;4858974;29;20124;-52
2021/09/25 02:45:08;;;;;;;12.63;7.30;;;333.30;2329.60;;;;;;4858985;29;20037;-52
2021/09/25 02:47:34;;;;;;;8.85;7.45;;;333.20;2329.60;;;;;;4859060;29;20022;-51
2021/09/25 02:50:00;;;;;;;8.02;6.28;;;333.20;2329.60;;;;;;4858895;29;20506;-54
2021/09/25 02:52:29;;;;;;;9.90;7.18;;;333.10;2329.60;;;;;;4859214;29;20116;-51
2021/09/25 02:54:55;;;;;;;9.10;6.85;;;333.10;2329.60;;;;;;4859147;29;20041;-52
2021/09/25 02:57:20;;;;;;;10.48;7.90;;;333.10;2329.60;;;;;;4858878;29;20028;-54
2021/09/25 02:59:46;;;;;;;10.85;7.68;;;333.00;2329.60;;;;;;4858688;29;20396;-52
2021/09/25 03:02:12;;;;;;;10.88;7.38;;;333.10;2329.60;;;;;;4858777;29;20049;-50
2021/09/25 03:04:38;;;;;;;8.65;6.70;;;333.00;2329.60;;;;;;4858555;29;20046;-51
2021/09/25 03:07:03;;;;;;;8.95;6.70;;;333.00;2329.60;;;;;;4858722;29;20029;-52
2021/09/25 03:09:29;;;;;;;9.38;7.03;;;333.00;2329.60;;;;;;4858644;29;20379;-51
2021/09/25 03:11:55;;;;;;;10.10;7.60;;;333.00;2329.60;;;;;;4858998;29;20396;-51
2021/09/25 03:14:22;;;;;;;13.35;7.18;;;333.00;2329.60;;;;;;4858747;29;20033;-51
2021/09/25 03:16:48;;;;;;;12.40;7.10;;;332.90;2329.60;;;;;;4858479;29;20044;-62
2021/09/25 03:19:13;;;;;;;11.77;7.00;;;333.00;2329.60;;;;;;4858483;29;20026;-65
2021/09/25 03:21:39;;;;;;;11.57;7.30;;;333.00;2329.60;;;;;;4858507;29;20041;-62
2021/09/25 03:24:05;;;;;;;8.80;6.63;;;333.00;2329.60;;;;;;4858336;29;20044;-53
2021/09/25 03:26:31;;;;;;;14.13;8.15;;;333.00;2329.60;;;;;;4858451;29;20116;-54
2021/09/25 03:28:57;;;;;;;9.77;7.57;;;333.00;2329.60;;;;;;4858305;29;20026;-63
2021/09/25 03:31:22;;;;;;;10.02;7.90;;;332.90;2329.60;;;;;;4858321;29;20128;-57
2021/09/25 03:33:48;;;;;;;10.55;6.90;;;332.90;2329.60;;;;;;4858181;29;20484;-61
2021/09/25 03:36:14;;;;;;;11.32;7.60;;;332.90;2329.60;;;;;;4858371;29;20030;-63
2021/09/25 03:38:39;;;;;;;9.98;7.25;;;332.90;2329.60;;;;;;4858074;29;20046;-52
2021/09/25 03:41:05;;;;;;;10.05;6.93;;;332.90;2329.60;;;;;;4858056;29;20482;-53
2021/09/25 03:43:31;;;;;;;10.93;7.68;;;332.90;2329.60;;;;;;4858146;29;20033;-61
2021/09/25 03:45:57;;;;;;;9.48;7.28;;;332.90;2329.60;;;;;;4858107;29;20033;-62
2021/09/25 03:48:22;;;;;;;9.70;7.05;;;332.90;2329.60;;;;;;4858174;29;20041;-63
2021/09/25 03:50:48;;;;;;;10.45;7.40;;;332.90;2329.60;;;;;;4857863;29;20057;-64
2021/09/25 03:53:14;;;;;;;9.98;6.68;;;332.90;2329.60;;;;;;4858123;29;20022;-64
2021/09/25 03:55:40;;;;;;;9.20;7.05;;;332.90;2329.60;;;;;;4858053;29;20036;-64
2021/09/25 03:58:05;;;;;;;9.82;7.90;;;332.90;2329.60;;;;;;4840846;29;20033;-52
2021/09/25 04:00:31;;;;;;;12.88;7.85;;;332.90;2329.60;;;;;;4857888;29;20033;-60
2021/09/25 04:02:57;;;;;;;12.32;8.18;;;333.00;2329.60;;;;;;4857745;29;20041;-64
2021/09/25 04:05:23;;;;;;;10.27;7.25;;;332.90;2329.60;;;;;;4858081;29;20220;-51
2021/09/25 04:07:49;;;;;;;9.80;7.45;;;332.80;2329.60;;;;;;4857654;29;20025;-52
2021/09/25 04:10:16;;;;;;;12.55;8.00;;;308.10;2304.00;;;;;;4857815;29;20053;-53
2021/09/25 04:12:42;;;;;;;11.00;7.13;;;308.10;2304.00;;;;;;4857812;29;20033;-51
2021/09/25 04:15:09;;;;;;;9.23;7.38;;;308.10;2304.00;;;;;;4857499;29;20046;-51
2021/09/25 04:17:35;;;;;;;8.98;6.80;;;308.10;2304.00;;;;;;4857590;29;20041;-52
2021/09/25 04:20:05;;;;;;;10.98;7.70;;;332.80;2329.60;;;;;;4857629;29;20029;-51
2021/09/25 04:22:31;;;;;;;8.35;6.55;;;332.80;2329.60;;;;;;4857543;29;20045;-52
2021/09/25 04:24:57;;;;;;;8.82;7.43;;;332.90;2329.60;;;;;;4857590;29;20025;-51
2021/09/25 04:27:23;;;;;;;12.73;7.82;;;332.90;2329.60;;;;;;4857878;29;20369;-51
2021/09/25 04:29:49;;;;;;;11.60;7.72;;;332.90;2329.60;;;;;;4857366;29;20156;-52
2021/09/25 04:32:15;;;;;;;11.82;7.80;;;332.90;2329.60;;;;;;4857638;29;20477;-51
2021/09/25 04:34:40;;;;;;;9.70;7.28;;;332.90;2329.60;;;;;;4857131;29;20029;-53
2021/09/25 04:37:06;;;;;;;14.65;8.48;;;332.90;2329.60;;;;;;4857412;29;20063;-58
2021/09/25 04:39:32;;;;;;;12.07;8.13;;;333.00;2329.60;;;;;;4857368;29;20030;-66
2021/09/25 04:41:57;;;;;;;12.65;7.40;;;333.10;2329.60;;;;;;4857557;29;20128;-64
2021/09/25 04:44:23;;;;;;;10.05;7.40;;;333.20;2329.60;;;;;;4857549;29;20037;-61
2021/09/25 04:46:49;;;;;;;15.73;7.63;;;333.20;2329.60;;;;;;4857316;29;20034;-66
2021/09/25 04:49:16;;;;;;;11.82;8.32;;;333.20;2329.60;;;;;;4857436;29;20100;-65
2021/09/25 04:51:42;;;;;;;14.07;10.13;;;333.30;2329.60;;;;;;4857293;29;20041;-66
2021/09/25 04:54:08;;;;;;;12.02;9.15;;;333.40;2329.60;;;;;;4856983;29;20077;-51
2021/09/25 04:56:34;;;;;;;12.95;9.73;;;333.40;2329.60;;;;;;4857216;29;20144;-52
2021/09/25 04:59:00;;;;;;;11.80;8.35;;;333.40;2329.60;;;;;;4857025;29;20115;-53
2021/09/25 05:01:26;;;;;;;12.07;7.88;;;333.50;2329.60;;;;;;4858358;29;20077;-53
2021/09/25 05:03:52;;;;;;;10.23;7.75;;;333.60;2329.60;;;;;;4848914;29;20582;-51
2021/09/25 05:06:18;;;;;;;11.25;7.90;;;333.70;2329.60;;;;;;4877089;29;20044;-52
2021/09/25 05:08:43;;;;;;;9.43;6.05;;;333.70;2329.60;;;;;;4879462;29;20025;-51
2021/09/25 05:11:09;;;;;;;14.18;8.48;;;333.70;2329.60;;;;;;4879266;29;20029;-52
2021/09/25 05:13:35;;;;;;;14.23;8.73;;;333.70;2329.60;;;;;;4879510;29;20028;-51
2021/09/25 05:16:01;;;;;;;17.48;11.20;;;358.40;2329.60;;;;;;4879379;29;20025;-52
2021/09/25 05:18:27;;;;;;;22.65;13.07;;;358.50;2329.60;;;;;;4878764;29;20112;-52
2021/09/25 05:20:53;;;;;;;15.05;10.75;;;358.50;2329.60;;;;;;4878845;29;20070;-51
2021/09/25 05:23:19;;;;;;;18.30;9.70;;;358.50;2329.60;;;;;;4878502;29;20033;-52
2021/09/25 05:25:45;;;;;;;16.02;9.20;;;358.60;2329.60;;;;;;4878631;29;20112;-60
2021/09/25 05:28:11;;;;;;;14.88;10.05;;;358.70;2329.60;;;;;;4878761;29;20104;-65
2021/09/25 05:30:38;;;;;;;9.68;7.38;;;358.80;2329.60;;;;;;4878467;29;20404;-63
2021/09/25 05:33:05;;;;;;;12.32;8.55;;;359.00;2329.60;;;;;;4879110;29;20040;-64
2021/09/25 05:35:31;;;;;;;14.02;9.48;;;359.00;2329.60;;;;;;4878655;29;20030;-65
2021/09/25 05:37:57;;;;;;;15.98;10.20;;;359.00;2329.60;;;;;;4878963;29;20033;-63
2021/09/25 05:40:22;;;;;;;15.50;9.55;;;359.30;2329.60;;;;;;4878920;29;20029;-64
2021/09/25 05:42:48;;;;;;;11.35;9.68;;;359.10;2329.60;;;;;;4878516;29;20049;-51
2021/09/25 05:45:16;;;;;;;10.27;8.85;;;359.20;2329.60;;;;;;4879075;29;20048;-52
2021/09/25 05:47:42;;;;;;;11.55;8.70;;;359.30;2329.60;;;;;;4878831;29;20037;-52
2021/09/25 05:50:08;;;;;;;16.90;9.95;;;384.00;2329.60;;;;;;4878439;29;20033;-51
2021/09/25 05:52:34;;;;;;;12.50;8.93;;;384.10;2329.60;;;;;;4878728;29;20037;-50
2021/09/25 05:55:00;;;;;;;14.63;9.32;;;384.30;2329.60;;;;;;4878301;29;20030;-51
2021/09/25 05:57:26;;;;;;;11.40;8.77;;;410.40;2355.20;;;;;;4878853;29;21016;-52
2021/09/25 05:59:51;;;;;;;11.48;7.15;;;486.80;2380.80;;;;;;4878504;29;20072;-52
2021/09/25 06:02:17;;;;;;;15.98;9.43;;;538.20;2406.40;;;;;;4878352;29;20029;-53
2021/09/25 06:04:43;;;;;;;8.65;7.63;;;589.30;2432.00;;;;;;4878408;29;20029;-52
2021/09/25 06:07:11;;;;;;;9.88;8.70;;;614.60;2432.00;;;;;;4878380;29;20155;-52
2021/09/25 06:09:37;;;;;;;7.97;7.18;;;614.80;2432.00;;;;;;4878159;29;20025;-52
2021/09/25 06:12:04;;;;;;;12.10;8.75;;;640.30;2278.40;;;;;;4878028;29;20029;-53
2021/09/25 06:14:30;;;;;;;14.52;9.63;;;640.20;2252.80;;;;;;4877487;29;20032;-56
2021/09/25 06:16:56;;;;;;;10.73;8.50;;;640.90;2176.00;;;;;;4878266;29;20037;-57
2021/09/25 06:19:22;;;;;;;11.63;10.50;;;666.20;2176.00;;;;;;4868498;29;20057;-55
2021/09/25 06:21:48;;;;;;;11.45;10.45;;;691.20;2048.00;;;;;;4861620;29;20052;-51
2021/09/25 06:24:14;;;;;;;11.80;10.65;;;691.80;1971.20;;;;;;4866847;29;20033;-53
2021/09/25 06:26:40;;;;;;;11.95;10.90;;;717.50;1920.00;;;;;;4864296;29;20039;-53
2021/09/25 06:29:06;;;;;;;27.40;25.02;;;768.20;1740.80;;;;;;4869207;29;20373;-59
2021/09/25 06:31:33;;;;;;;30.25;27.77;;;768.20;1715.20;;;;;;4859301;29;20146;-54
2021/09/25 06:33:59;;;;;;;19.27;17.33;;;794.40;1612.80;;;;;;4859299;29;20029;-53
2021/09/25 06:36:24;;;;;;;19.15;17.15;;;794.50;1561.60;;;;;;4859420;29;20434;-55
2021/09/25 06:38:50;;;;;;;63.35;56.95;;;793.80;1587.20;;;;;;4859314;29;20430;-59
2021/09/25 06:41:17;;;;;;;17.83;16.30;;;793.70;1587.20;;;;;;4859014;29;20101;-58
2021/09/25 06:43:43;;;;;;;28.02;24.73;;;794.20;1536.00;;;;;;4859616;29;20377;-58
2021/09/25 06:46:09;;;;;;;21.98;20.10;;;793.60;1561.60;;;;;;4858962;29;20033;-60
2021/09/25 06:48:35;;;;;;;47.00;42.08;;;793.70;1561.60;;;;;;4859097;29;20038;-59
2021/09/25 06:51:01;;;;;;;67.45;60.13;;;794.00;1536.00;;;;;;4859240;29;20029;-58
2021/09/25 06:53:26;;;;;;;15.75;14.45;;;794.00;1536.00;;;;;;4859078;29;20061;-61
2021/09/25 06:55:52;;;;;;;26.10;23.65;;;793.60;1536.00;;;;;;4856856;29;20033;-58
2021/09/25 06:58:18;;;;;;;22.45;16.67;;;819.40;1459.20;;;;;;4857410;29;20528;-59
2021/09/25 07:00:47;;;;;;;17.65;15.90;;;844.90;1433.60;;;;;;4857207;29;20072;-58
2021/09/25 07:03:14;;;;;;;19.58;17.77;;;845.40;1408.00;;;;;;4857591;29;20537;-60
2021/09/25 07:05:40;;;;;;;21.50;19.33;;;819.90;1433.60;;;;;;4868214;29;20400;-59
2021/09/25 07:08:06;;;;;;;20.10;18.10;;;820.10;1408.00;;;;;;4875279;29;20523;-58
2021/09/25 07:10:32;;;;;;;21.42;19.48;;;820.00;1408.00;;;;;;4875675;29;20033;-58
2021/09/25 07:12:58;;;;;;;19.98;17.98;;;820.10;1408.00;;;;;;4875896;29;20127;-61
2021/09/25 07:15:24;;;;;;;18.42;16.88;;;844.90;1408.00;;;;;;4877871;29;20037;-58
2021/09/25 07:17:49;;;;;;;20.08;18.15;;;819.80;1382.40;;;;;;4877031;29;20025;-60
2021/09/25 07:20:17;;;;;;;27.27;24.67;;;844.90;1408.00;;;;;;4877056;29;20033;-58
2021/09/25 07:22:46;;;;;;;21.08;18.92;;;845.50;1356.80;;;;;;4877024;29;20047;-58
2021/09/25 07:25:12;;;;;;;20.42;18.48;;;844.80;1408.00;;;;;;4876813;29;20021;-59
2021/09/25 07:27:40;;;;;;;20.05;18.00;;;845.50;1382.40;;;;;;4877373;29;20052;-57
2021/09/25 07:30:06;;;;;;;19.92;17.60;;;845.20;1408.00;;;;;;4861325;29;20068;-58
2021/09/25 07:32:32;;;;;;;24.02;17.95;;;820.10;1408.00;;;;;;4858540;29;20552;-59
2021/09/25 07:34:58;;;;;;;19.52;17.70;;;870.90;1331.20;;;;;;4858258;29;20029;-58
2021/09/25 07:37:24;;;;;;;22.92;17.75;;;870.90;1331.20;;;;;;4858443;29;20089;-57
2021/09/25 07:39:51;;;;;;;21.17;18.98;;;896.10;1280.00;;;;;;4858144;29;20021;-58
2021/09/25 07:42:20;;;;;;;18.10;15.85;;;870.90;1331.20;;;;;;4857998;29;20064;-62
2021/09/25 07:44:49;;;;;;;18.50;15.25;;;871.30;1305.60;;;;;;4858069;29;20033;-61
2021/09/25 07:47:16;;;;;;;20.55;18.33;;;871.30;1305.60;;;;;;4858254;29;20030;-60
2021/09/25 07:49:42;;;;;;;18.75;16.80;;;870.80;1331.20;;;;;;4858141;29;20049;-59
2021/09/25 07:52:08;;;;;;;17.58;14.80;;;845.10;1382.40;;;;;;4858047;29;20484;-60
2021/09/25 07:54:33;;;;;;;25.75;16.63;;;845.00;1382.40;;;;;;4858087;29;20030;-58
2021/09/25 07:56:59;;;;;;;15.90;14.38;;;845.70;1356.80;;;;;;4857658;29;20029;-58
2021/09/25 07:59:25;;;;;;;20.90;15.50;;;871.30;1305.60;;;;;;4858227;29;20033;-62
2021/09/25 08:01:50;;;;;;;18.15;15.02;;;896.10;1280.00;;;;;;4857955;29;20477;-59
2021/09/25 08:04:17;;;;;;;16.98;15.18;;;896.00;1280.00;;;;;;4857857;29;20021;-62
2021/09/25 08:06:44;;;;;;;16.52;13.63;;;896.40;1254.40;;;;;;4857776;29;20061;-58
2021/09/25 08:09:09;;;;;;;20.88;13.60;;;947.30;1177.60;;;;;;4857577;29;20116;-60
2021/09/25 08:11:35;;;;;;;15.82;14.40;;;921.90;1228.80;;;;;;4857784;29;20129;-63
2021/09/25 08:14:01;;;;;;;16.10;13.13;;;896.30;1228.80;;;;;;4857757;29;20392;-57
2021/09/25 08:16:27;;;;;;;15.18;13.57;;;896.20;1254.40;;;;;;4866623;29;20033;-60
2021/09/25 08:18:54;;;;;;;14.55;12.68;;;922.10;1177.60;;;;;;4865998;29;20073;-60
2021/09/25 08:21:20;;;;;;;19.67;13.00;;;921.80;1228.80;;;;;;4866992;29;20045;-59
2021/09/25 08:23:46;;;;;;;14.45;11.50;;;922.40;1177.60;;;;;;4871650;29;20025;-62
2021/09/25 08:26:12;;;;;;;14.75;13.25;;;922.30;1177.60;;;;;;4876106;29;20037;-58
2021/09/25 08:28:38;;;;;;;15.23;12.13;;;896.70;1203.20;;;;;;4875992;29;20116;-62
2021/09/25 08:31:03;;;;;;;16.15;11.77;;;922.00;1177.60;;;;;;4875853;29;20105;-63
2021/09/25 08:33:29;;;;;;;12.30;11.10;;;871.10;1203.20;;;;;;4876039;29;20480;-60
2021/09/25 08:35:55;;;;;;;16.80;11.27;;;871.10;1203.20;;;;;;4875274;29;20073;-61
2021/09/25 08:38:22;;;;;;;11.90;10.82;;;922.00;1152.00;;;;;;4875665;29;20088;-59
2021/09/25 08:40:47;;;;;;;14.23;11.85;;;871.30;1203.20;;;;;;4875703;29;20484;-63
2021/09/25 08:43:13;;;;;;;11.45;10.23;;;896.90;1177.60;;;;;;4875927;29;20037;-62
2021/09/25 08:45:39;;;;;;;10.88;9.90;;;921.70;1152.00;;;;;;4876079;29;20536;-62
2021/09/25 08:48:06;;;;;;;20.33;13.65;;;870.70;1203.20;;;;;;4876094;29;20033;-64
2021/09/25 08:50:32;;;;;;;13.65;11.32;;;871.10;1203.20;;;;;;4875764;29;20444;-63
2021/09/25 08:52:58;;;;;;;45.33;14.00;;;870.50;1228.80;;;;;;4875996;29;20029;-59
2021/09/25 08:55:24;;;;;;;22.65;11.55;;;870.80;1254.40;;;;;;4875975;29;20036;-64
2021/09/25 08:57:50;;;;;;;13.63;9.68;;;845.10;1331.20;;;;;;4875549;29;20025;-61
2021/09/25 09:00:35;;;;;;;12.20;8.52;;;819.90;1280.00;;;;;;4875504;29;20037;-60
2021/09/25 09:03:20;;;;;;;13.98;8.43;;;794.00;1356.80;;;;;;4875655;29;20459;-64
2021/09/25 09:05:46;;;;;;;17.10;9.23;;;742.70;1459.20;;;;;;4875694;29;20032;-58
2021/09/25 09:08:12;;;;;;;13.93;8.77;;;717.50;1510.40;;;;;;4875760;29;20056;-62
2021/09/25 09:10:38;;;;;;;12.10;8.25;;;717.50;1484.80;;;;;;4875679;29;20104;-62
2021/09/25 09:13:06;;;;;;;18.77;7.93;;;691.60;1484.80;;;;;;4875983;29;20060;-60
2021/09/25 09:15:37;;;;;;;9.27;7.28;;;691.90;1484.80;;;;;;4875793;29;20112;-62
2021/09/25 09:18:03;;;;;;;18.00;8.63;;;716.80;1536.00;;;;;;4875608;29;20036;-62
2021/09/25 09:20:31;;;;;;;10.77;7.22;;;716.80;1536.00;;;;;;4874724;29;20551;-61
2021/09/25 09:23:18;;;;;;;10.13;7.60;;;716.80;1536.00;;;;;;4875321;29;20088;-61
2021/09/25 09:25:45;;;;;;;17.20;7.82;;;691.60;1510.40;;;;;;4875763;29;20033;-63
2021/09/25 09:28:32;;;;;;;15.02;7.53;;;666.50;1587.20;;;;;;4873748;29;20031;-60
2021/09/25 09:31:03;;;;;;;15.82;8.57;;;666.40;1536.00;;;;;;4873798;29;20060;-63
2021/09/25 09:33:34;;;;;;;13.38;8.00;;;691.30;1536.00;;;;;;4873854;29;20401;-63
2021/09/25 09:36:13;;;;;;;14.82;9.23;;;691.50;1561.60;;;;;;4873973;29;20029;-57
2021/09/25 09:38:49;;;;;;;11.57;7.85;;;691.30;1536.00;;;;;;4874038;29;20472;-56
2021/09/25 09:41:20;;;;;;;37.35;19.42;;;691.40;1536.00;;;;;;4873640;29;20036;-60
2021/09/25 09:43:46;;;;;;;19.85;10.80;;;691.60;1561.60;;;;;;4873968;29;20044;-58
2021/09/25 09:46:13;;;;;;;13.57;8.48;;;691.90;1536.00;;;;;;4874032;29;20630;-61
2021/09/25 09:48:40;;;;;;;16.55;8.90;;;692.10;1536.00;;;;;;4876619;29;20059;-58
2021/09/25 09:51:05;;;;;;;12.73;7.47;;;691.40;1561.60;;;;;;4877234;29;20495;-63
2021/09/25 09:53:43;;;;;;;14.55;9.18;;;691.50;1536.00;;;;;;4877098;29;20029;-58
2021/09/25 09:56:23;;;;;;;10.80;8.20;;;691.20;1561.60;;;;;;4877100;29;20029;-61
2021/09/25 09:58:59;;;;;;;13.75;8.18;;;666.50;1561.60;;;;;;4876767;29;20025;-58
2021/09/25 10:01:25;;;;;;;12.73;8.00;;;691.30;1561.60;;;;;;4877981;29;20045;-57
2021/09/25 10:03:52;;;;;;;14.50;8.75;;;666.30;1587.20;;;;;;4878298;29;20488;-57
2021/09/25 10:06:19;;;;;;;11.32;8.10;;;666.20;1587.20;;;;;;4878611;29;20120;-57
2021/09/25 10:08:45;;;;;;;13.18;8.32;;;665.80;1638.40;;;;;;4878746;29;20037;-61
2021/09/25 10:11:11;;;;;;;12.98;7.78;;;666.00;1612.80;;;;;;4878632;29;20040;-62
2021/09/25 10:13:41;;;;;;;14.40;8.50;;;666.10;1638.40;;;;;;4878139;29;20096;-57
2021/09/25 10:16:08;;;;;;;17.20;9.45;;;666.00;1638.40;;;;;;4878231;29;20505;-57
2021/09/25 10:18:36;;;;;;;15.65;8.82;;;666.30;1638.40;;;;;;4878211;29;20025;-57
2021/09/25 10:21:04;;;;;;;15.77;8.63;;;666.40;1612.80;;;;;;4877198;29;20032;-60
2021/09/25 10:23:33;;;;;;;13.35;8.13;;;666.20;1638.40;;;;;;4877320;29;20021;-58
2021/09/25 10:25:59;;;;;;;10.55;7.30;;;666.30;1638.40;;;;;;4877539;29;20033;-61
2021/09/25 10:28:27;;;;;;;11.38;6.30;;;666.20;1664.00;;;;;;4878288;29;20025;-59
2021/09/25 10:30:54;;;;;;;9.13;5.97;;;666.50;1664.00;;;;;;4878086;29;20456;-60
2021/09/25 10:33:22;;;;;;;12.10;6.13;;;666.20;1638.40;;;;;;4877882;29;20125;-59
2021/09/25 10:35:51;;;;;;;7.72;6.80;;;666.40;1664.00;;;;;;4877944;29;20183;-61
2021/09/25 10:38:38;;;;;;;8.60;5.95;;;666.30;1664.00;;;;;;4877725;29;20036;-59
2021/09/25 10:41:19;;;;;;;7.60;5.60;;;666.20;1638.40;;;;;;4878033;29;20128;-58
2021/09/25 10:43:47;;;;;;;7.63;5.43;;;665.90;1664.00;;;;;;4877925;29;20116;-58
2021/09/25 10:46:15;;;;;;;7.78;6.00;;;666.10;1689.60;;;;;;4878074;29;20093;-56
2021/09/25 10:48:50;;;;;;;9.60;6.13;;;666.10;1689.60;;;;;;4859988;29;20067;-59
2021/09/25 10:51:19;;;;;;;8.70;5.90;;;665.90;1664.00;;;;;;4877334;29;20440;-57
2021/09/25 10:53:49;;;;;;;6.90;4.75;;;666.20;1689.60;;;;;;4875080;29;20021;-61
2021/09/25 10:56:21;;;;;;;7.70;5.57;;;666.10;1612.80;;;;;;4877331;29;20037;-58
2021/09/25 10:58:57;;;;;;;7.65;5.70;;;666.30;1664.00;;;;;;4874277;29;20518;-57
2021/09/25 11:01:33;;;;;;;7.10;5.03;;;666.50;1715.20;;;;;;4877333;29;20043;-59
2021/09/25 11:04:04;;;;;;;8.45;5.88;;;666.40;1664.00;;;;;;4877025;29;20033;-61
2021/09/25 11:06:30;;;;;;;10.70;5.97;;;666.50;1740.80;;;;;;4877394;29;20064;-60
2021/09/25 11:08:55;;;;;;;9.25;5.35;;;691.20;1740.80;;;;;;4877606;29;20064;-60
2021/09/25 11:11:52;;;;;;;6.85;5.28;;;691.20;1664.00;;;;;;4877365;29;20116;-60
2021/09/25 11:14:28;;;;;;;7.95;5.68;;;666.10;1638.40;;;;;;4877304;29;20929;-61
2021/09/25 11:17:11;;;;;;;7.03;5.70;;;665.70;1689.60;;;;;;4877741;29;20033;-61
2021/09/25 11:19:41;;;;;;;;;;;665.90;1664.00;;;;;;4877608;29;20069;-59
2021/09/25 11:22:10;;;;;;;7.78;5.78;;;666.00;1664.00;;;;;;4876843;29;20389;-61
2021/09/25 11:24:39;;;;;;;14.18;5.65;;;665.90;1664.00;;;;;;4877331;29;20048;-58
2021/09/25 11:27:15;;;;;;;7.00;5.95;;;665.90;1664.00;;;;;;4857257;29;20141;-59
2021/09/25 11:30:01;;;;;;;6.22;5.63;;;665.80;1689.60;;;;;;4872232;29;20403;-58
2021/09/25 11:32:37;;;;;;;7.53;5.93;;;665.90;1638.40;;;;;;4877161;29;20045;-59
2021/09/25 11:35:10;;;;;;;7.82;5.80;;;666.20;1664.00;;;;;;4877144;29;20029;-60
2021/09/25 11:38:04;;;;;;;8.50;6.03;;;666.10;1638.40;;;;;;4876784;29;20057;-57
2021/09/25 11:40:36;;;;;;;10.20;6.68;;;666.30;1612.80;;;;;;4877007;29;20132;-62
2021/09/25 11:43:08;;;;;;;5.97;5.18;;;666.30;1612.80;;;;;;4877152;29;20484;-58
2021/09/25 11:45:41;;;;;;;7.57;5.93;;;666.20;1612.80;;;;;;4860038;29;20037;-58
2021/09/25 11:48:07;;;;;;;;;;;666.20;1664.00;;;;;;4877223;29;20028;-61
2021/09/25 11:50:36;;;;;;;10.93;5.55;;;666.00;1587.20;;;;;;4876814;29;19968;-56
2021/09/25 11:53:11;;;;;;;10.50;6.10;;;666.00;1587.20;;;;;;4876920;29;20025;-60
2021/09/25 11:55:37;;;;;;;9.65;5.53;;;665.90;1587.20;;;;;;4864723;29;20393;-59
2021/09/25 11:58:06;;;;;;;7.90;6.30;;;666.10;1587.20;;;;;;4858357;29;20029;-59
2021/09/25 12:00:39;;;;;;;8.88;5.78;;;666.10;1587.20;;;;;;4864943;29;20036;-58
2021/09/25 12:03:06;;;;;;;7.20;5.50;;;666.20;1612.80;;;;;;4867859;29;20041;-59
2021/09/25 12:05:32;;;;;;;6.80;5.70;;;666.30;1612.80;;;;;;4867934;29;20433;-59
2021/09/25 12:08:01;;;;;;;8.30;5.30;;;666.20;1561.60;;;;;;4867758;29;20029;-61
2021/09/25 12:10:31;;;;;;;6.05;5.22;;;666.30;1561.60;;;;;;4864595;29;20032;-63